Time;durP1;ratioP1;P1;durP2;ratioP2;P2;SDS_P1;SDS_P2;PMS_P1;PMS_P2;Temp;Humidity;BMP_temperature;BMP_pressure;BME280_temperature;BME280_humidity;BME280_pressure;Samples;Min_cycle;Max_cycle;Signal;HPM_P1;HPM_P2
2021/12/15 00:02:26;;;;;;;16.33;9.20;;;8.20;99.90;;;;;;4995641;28;20272;-69
2021/12/15 00:04:53;;;;;;;19.83;9.23;;;8.20;99.90;;;;;;4995335;28;20429;-69
2021/12/15 00:07:20;;;;;;;20.50;8.97;;;8.30;99.90;;;;;;4995363;28;20429;-68
2021/12/15 00:09:47;;;;;;;15.83;9.73;;;8.20;99.90;;;;;;4995439;28;20497;-68
2021/12/15 00:12:14;;;;;;;17.60;9.13;;;8.20;99.90;;;;;;4995509;28;20430;-70
2021/12/15 00:14:41;;;;;;;19.40;9.90;;;8.20;99.90;;;;;;4983508;28;20797;-68
2021/12/15 00:17:07;;;;;;;16.23;10.33;;;8.30;99.90;;;;;;4974705;28;20763;-69
2021/12/15 00:19:33;;;;;;;18.70;9.57;;;8.20;99.90;;;;;;4975857;28;20524;-68
2021/12/15 00:21:59;;;;;;;14.90;8.70;;;8.20;99.90;;;;;;4975694;28;20983;-69
2021/12/15 00:24:26;;;;;;;16.90;9.27;;;8.20;99.90;;;;;;4975679;28;20411;-69
2021/12/15 00:26:54;;;;;;;18.03;9.50;;;8.20;99.90;;;;;;4975772;28;20414;-69
2021/12/15 00:29:19;;;;;;;17.47;8.97;;;8.20;99.90;;;;;;4975517;28;20477;-68
2021/12/15 00:31:46;;;;;;;17.93;10.03;;;8.20;99.90;;;;;;4975604;28;20961;-69
2021/12/15 00:34:13;;;;;;;18.77;7.93;;;8.20;99.90;;;;;;4975624;28;20415;-69
2021/12/15 00:36:43;;;;;;;18.67;9.70;;;8.20;99.90;;;;;;4975586;28;20816;-69
2021/12/15 00:39:10;;;;;;;16.03;7.90;;;8.20;99.90;;;;;;4975600;28;20410;-69
2021/12/15 00:41:36;;;;;;;19.50;8.83;;;8.20;99.90;;;;;;4975702;28;20460;-68
2021/12/15 00:44:01;;;;;;;20.33;9.83;;;8.20;99.90;;;;;;4975807;28;20408;-68
2021/12/15 00:46:30;;;;;;;18.10;9.10;;;8.30;99.90;;;;;;4975646;28;20175;-68
2021/12/15 00:48:55;;;;;;;19.90;8.43;;;8.30;99.90;;;;;;4974778;28;20563;-69
2021/12/15 00:51:21;;;;;;;18.33;8.57;;;8.20;99.90;;;;;;4976735;28;20524;-69
2021/12/15 00:53:47;;;;;;;14.97;8.27;;;8.20;99.90;;;;;;4979421;28;20195;-70
2021/12/15 00:56:13;;;;;;;15.53;8.63;;;8.20;99.90;;;;;;4978393;28;20186;-68
2021/12/15 00:58:38;;;;;;;15.57;7.80;;;8.20;99.90;;;;;;4975599;28;20440;-67
2021/12/15 01:01:04;;;;;;;16.23;7.60;;;8.20;99.90;;;;;;4975296;28;20741;-69
2021/12/15 01:03:31;;;;;;;14.43;8.40;;;8.30;99.90;;;;;;4974005;28;20745;-68
2021/12/15 01:06:04;;;;;;;17.67;8.03;;;8.40;99.90;;;;;;4974833;28;20884;-68
2021/12/15 01:08:32;;;;;;;19.40;10.57;;;8.20;99.90;;;;;;4975216;28;20484;-68
2021/12/15 01:11:18;;;;;;;22.07;10.20;;;8.20;99.90;;;;;;4975098;28;20491;-68
2021/12/15 01:22:05;;;;;;;24.03;9.87;;;8.30;99.90;;;;;;4975172;28;20472;-68
2021/12/15 01:24:31;;;;;;;22.07;10.00;;;8.20;99.90;;;;;;4976961;28;20433;-68
2021/12/15 01:26:57;;;;;;;16.53;7.27;;;8.20;99.90;;;;;;4975000;28;21115;-69
2021/12/15 01:29:23;;;;;;;18.83;8.60;;;8.20;99.90;;;;;;4974803;28;20229;-69
2021/12/15 01:31:49;;;;;;;23.50;10.27;;;8.20;99.90;;;;;;4973377;28;20593;-70
2021/12/15 01:34:17;;;;;;;23.97;9.27;;;8.10;99.90;;;;;;4974751;28;20409;-69
2021/12/15 01:36:43;;;;;;;22.73;10.17;;;8.10;99.90;;;;;;4974624;28;20269;-69
2021/12/15 01:39:09;;;;;;;19.97;8.77;;;8.10;99.90;;;;;;4974407;28;20489;-69
2021/12/15 01:41:35;;;;;;;19.53;10.33;;;8.20;99.90;;;;;;4974294;28;20214;-68
2021/12/15 01:46:57;;;;;;;17.23;7.30;;;8.20;99.90;;;;;;4974257;28;20415;-68
2021/12/15 01:49:38;;;;;;;13.67;8.40;;;8.20;99.90;;;;;;4974160;28;20838;-68
2021/12/15 01:52:12;;;;;;;19.87;9.37;;;8.10;99.90;;;;;;4974195;28;20491;-68
2021/12/15 01:54:40;;;;;;;17.47;8.07;;;8.10;99.90;;;;;;4974087;28;20754;-69
2021/12/15 01:57:10;;;;;;;12.73;8.10;;;8.10;99.90;;;;;;4974033;28;20565;-68
2021/12/15 01:59:36;;;;;;;18.20;8.30;;;8.20;99.90;;;;;;4973656;28;20445;-69
2021/12/15 02:02:04;;;;;;;19.97;9.33;;;8.20;99.90;;;;;;4973273;28;20430;-68
2021/12/15 02:04:30;;;;;;;16.70;8.20;;;8.20;99.90;;;;;;4973990;28;20410;-69
2021/12/15 02:06:56;;;;;;;19.63;7.90;;;8.30;99.90;;;;;;4972433;28;20453;-68
2021/12/15 02:12:10;;;;;;;14.13;8.20;;;8.20;99.90;;;;;;4973932;28;20474;-68
2021/12/15 02:14:35;;;;;;;11.57;8.27;;;8.20;99.90;;;;;;4973793;28;20410;-67
2021/12/15 02:17:01;;;;;;;18.57;6.30;;;8.20;99.90;;;;;;4973637;28;20409;-69
2021/12/15 02:19:27;;;;;;;15.40;5.97;;;8.30;99.90;;;;;;4973828;28;20188;-69
2021/12/15 02:21:53;;;;;;;16.67;7.57;;;8.20;99.90;;;;;;4973572;28;20538;-69
2021/12/15 02:24:21;;;;;;;16.30;9.53;;;8.30;99.90;;;;;;4973425;28;20282;-68
2021/12/15 02:26:51;;;;;;;19.07;8.90;;;8.30;99.90;;;;;;4973472;28;20414;-69
2021/12/15 02:29:20;;;;;;;12.53;6.53;;;8.30;99.90;;;;;;4973397;28;20462;-69
2021/12/15 02:37:18;;;;;;;17.43;8.63;;;8.30;99.90;;;;;;4971877;28;20401;-68
2021/12/15 02:39:59;;;;;;;19.57;9.10;;;8.30;99.90;;;;;;4973567;28;20454;-68
2021/12/15 02:42:29;;;;;;;16.20;9.70;;;8.20;99.90;;;;;;4969625;28;20440;-68
2021/12/15 02:44:55;;;;;;;16.67;5.90;;;8.30;99.90;;;;;;4973050;28;20409;-68
2021/12/15 02:47:25;;;;;;;14.40;7.77;;;8.20;99.90;;;;;;4961439;28;20434;-68
2021/12/15 02:49:53;;;;;;;13.27;8.80;;;8.30;99.90;;;;;;4953694;28;20465;-67
2021/12/15 02:52:19;;;;;;;17.93;9.60;;;8.20;99.90;;;;;;4953823;28;20517;-68
2021/12/15 02:54:44;;;;;;;15.80;7.27;;;8.30;99.90;;;;;;4953808;28;20494;-68
2021/12/15 02:57:12;;;;;;;13.17;6.33;;;8.20;99.90;;;;;;4953668;28;20251;-68
2021/12/15 02:59:52;;;;;;;14.40;7.27;;;8.30;99.90;;;;;;4953759;28;20225;-68
2021/12/15 03:05:16;;;;;;;15.97;6.10;;;8.30;99.90;;;;;;4953726;29;20435;-68
2021/12/15 03:07:50;;;;;;;14.57;5.80;;;8.30;99.90;;;;;;4953546;28;20419;-69
2021/12/15 03:15:49;;;;;;;13.00;6.87;;;8.30;99.90;;;;;;4954278;28;20928;-69
2021/12/15 03:18:18;;;;;;;11.80;6.60;;;8.30;99.90;;;;;;4953318;28;20413;-69
2021/12/15 03:20:48;;;;;;;21.57;7.10;;;8.30;99.90;;;;;;4953405;28;20413;-68
2021/12/15 03:23:42;;;;;;;12.47;5.33;;;8.30;99.90;;;;;;4953394;28;20410;-68
2021/12/15 03:26:10;;;;;;;10.90;7.00;;;8.40;99.90;;;;;;4953122;28;20419;-68
2021/12/15 03:37:20;;;;;;;13.97;7.70;;;8.30;99.90;;;;;;4953382;28;20910;-68
2021/12/15 03:39:44;;;;;;;11.30;7.70;;;8.30;99.90;;;;;;4954387;28;20425;-68
2021/12/15 03:42:13;;;;;;;13.10;7.77;;;8.40;99.90;;;;;;4953749;28;20510;-69
2021/12/15 03:44:41;;;;;;;15.53;7.60;;;8.40;99.90;;;;;;4953557;28;20415;-68
2021/12/15 03:47:12;;;;;;;15.33;8.10;;;8.40;99.90;;;;;;4953227;28;20828;-68
2021/12/15 03:49:40;;;;;;;17.57;8.80;;;8.40;99.90;;;;;;4953149;28;20450;-69
2021/12/15 03:52:11;;;;;;;21.13;8.70;;;8.40;99.90;;;;;;4951905;28;20520;-69
2021/12/15 03:54:37;;;;;;;14.37;8.00;;;8.30;99.90;;;;;;4952970;28;21149;-69
2021/12/15 03:57:03;;;;;;;13.60;6.60;;;8.30;99.90;;;;;;4952970;28;20414;-68
2021/12/15 03:59:31;;;;;;;15.73;7.17;;;8.40;99.90;;;;;;4952974;28;20174;-68
2021/12/15 04:01:57;;;;;;;14.67;7.43;;;8.40;99.90;;;;;;4951550;28;20470;-68
2021/12/15 04:04:23;;;;;;;17.67;6.77;;;8.30;99.90;;;;;;4951984;28;20415;-68
2021/12/15 04:06:48;;;;;;;12.73;6.97;;;8.30;99.90;;;;;;4952067;28;20186;-68
2021/12/15 04:09:15;;;;;;;15.60;7.80;;;8.30;99.90;;;;;;4953074;28;20203;-69
2021/12/15 04:11:41;;;;;;;13.30;7.73;;;8.30;99.90;;;;;;4953083;28;20343;-69
2021/12/15 04:14:21;;;;;;;14.17;6.97;;;8.20;99.90;;;;;;4953197;28;20744;-68
2021/12/15 04:17:00;;;;;;;10.70;5.53;;;8.30;99.90;;;;;;4953016;28;20450;-69
2021/12/15 04:19:34;;;;;;;11.10;7.10;;;8.30;99.90;;;;;;4953071;28;20411;-69
2021/12/15 04:22:00;;;;;;;12.90;7.50;;;8.30;99.90;;;;;;4953138;28;20428;-68
2021/12/15 04:24:27;;;;;;;13.60;8.20;;;8.30;99.90;;;;;;4955177;28;20433;-68
2021/12/15 04:27:00;;;;;;;10.97;6.67;;;8.30;99.90;;;;;;4956293;28;20448;-69
2021/12/15 04:29:28;;;;;;;10.23;7.30;;;8.30;99.90;;;;;;4955578;28;20467;-69
2021/12/15 04:32:11;;;;;;;13.57;6.13;;;8.30;99.90;;;;;;4956309;28;20449;-68
2021/12/15 04:34:37;;;;;;;14.10;7.53;;;8.30;99.90;;;;;;4956307;28;20478;-68
2021/12/15 04:37:03;;;;;;;14.37;7.10;;;8.30;99.90;;;;;;4956706;28;20908;-69
2021/12/15 04:39:29;;;;;;;12.87;6.40;;;8.40;99.90;;;;;;4956367;28;20219;-69
2021/12/15 04:41:57;;;;;;;12.60;7.90;;;8.40;99.90;;;;;;4956627;28;20519;-69
2021/12/15 04:44:26;;;;;;;24.10;10.70;;;8.30;99.90;;;;;;4955295;28;20572;-68
2021/12/15 04:47:05;;;;;;;11.67;6.20;;;8.40;99.90;;;;;;4956486;28;20451;-69
2021/12/15 04:49:36;;;;;;;22.47;7.20;;;8.40;99.90;;;;;;4960022;28;20467;-69
2021/12/15 04:52:05;;;;;;;14.93;7.63;;;8.30;99.90;;;;;;4959898;28;20437;-68
2021/12/15 04:54:31;;;;;;;13.83;6.00;;;8.30;99.90;;;;;;4956820;28;20426;-69
2021/12/15 04:56:57;;;;;;;11.07;5.50;;;8.30;99.90;;;;;;4956258;28;20444;-69
2021/12/15 04:59:24;;;;;;;11.23;6.17;;;8.40;99.90;;;;;;4956187;28;20163;-68
2021/12/15 05:01:50;;;;;;;9.23;4.80;;;8.30;99.90;;;;;;4956705;28;20462;-69
2021/12/15 05:04:15;;;;;;;12.60;6.90;;;8.40;99.90;;;;;;4957321;28;20408;-68
2021/12/15 05:06:44;;;;;;;13.13;6.00;;;8.30;99.90;;;;;;4955694;28;20407;-68
2021/12/15 05:09:10;;;;;;;13.57;6.83;;;8.30;99.90;;;;;;4956021;28;20628;-69
2021/12/15 05:11:36;;;;;;;9.20;6.10;;;8.30;99.90;;;;;;4955570;28;20526;-69
2021/12/15 05:14:05;;;;;;;15.73;6.20;;;8.30;99.90;;;;;;4955764;28;20163;-69
2021/12/15 05:16:33;;;;;;;14.13;6.80;;;8.40;99.90;;;;;;4954291;29;20173;-69
2021/12/15 05:19:00;;;;;;;12.30;7.13;;;8.30;99.90;;;;;;4955332;28;20773;-68
2021/12/15 05:21:26;;;;;;;22.07;8.03;;;8.30;99.90;;;;;;4955559;28;20435;-69
2021/12/15 05:23:58;;;;;;;10.57;5.83;;;8.30;99.90;;;;;;4955667;28;20406;-68
2021/12/15 05:26:24;;;;;;;13.07;6.30;;;8.30;99.90;;;;;;4955304;28;20414;-69
2021/12/15 05:28:51;;;;;;;11.40;5.77;;;8.30;99.90;;;;;;4955381;28;20462;-68
2021/12/15 05:31:17;;;;;;;9.13;5.57;;;8.40;99.90;;;;;;4955217;28;20485;-69
2021/12/15 05:33:42;;;;;;;15.10;7.80;;;8.30;99.90;;;;;;4955234;28;20429;-69
2021/12/15 05:36:08;;;;;;;13.23;6.80;;;8.40;99.90;;;;;;4954975;28;20429;-67
2021/12/15 05:38:34;;;;;;;17.97;8.10;;;8.40;99.90;;;;;;4955424;28;20314;-70
2021/12/15 05:41:00;;;;;;;9.73;6.10;;;8.40;99.90;;;;;;4955053;28;20411;-69
2021/12/15 05:43:26;;;;;;;10.17;5.20;;;8.40;99.90;;;;;;4955039;28;20230;-69
2021/12/15 05:45:52;;;;;;;13.13;6.87;;;8.40;99.90;;;;;;4954995;28;20815;-69
2021/12/15 05:48:20;;;;;;;13.50;6.50;;;8.40;99.90;;;;;;4954891;28;20204;-68
2021/12/15 05:50:48;;;;;;;12.37;6.33;;;8.40;99.90;;;;;;4955104;28;20422;-68
2021/12/15 05:53:15;;;;;;;18.20;6.20;;;8.40;99.90;;;;;;4955218;28;20413;-68
2021/12/15 05:55:42;;;;;;;12.57;7.07;;;8.40;99.90;;;;;;4954809;28;20408;-69
2021/12/15 05:58:11;;;;;;;13.03;8.03;;;8.40;99.90;;;;;;4954785;28;20502;-69
2021/12/15 06:00:39;;;;;;;12.57;6.50;;;8.40;99.90;;;;;;4953854;28;20417;-69
2021/12/15 06:03:05;;;;;;;12.03;6.67;;;8.40;99.90;;;;;;4954696;28;20461;-68
2021/12/15 06:05:32;;;;;;;11.27;6.73;;;8.30;99.90;;;;;;4954663;28;20418;-68
2021/12/15 06:08:01;;;;;;;14.20;6.83;;;8.40;99.90;;;;;;4954653;28;20545;-69
2021/12/15 06:10:29;;;;;;;11.83;6.93;;;8.40;99.90;;;;;;4954789;28;20551;-68
2021/12/15 06:12:58;;;;;;;13.20;8.10;;;8.40;99.90;;;;;;4954609;28;20520;-69
2021/12/15 06:15:27;;;;;;;14.93;8.27;;;8.40;99.90;;;;;;4954364;28;20412;-70
2021/12/15 06:18:00;;;;;;;11.87;6.00;;;8.40;99.90;;;;;;4955170;28;20909;-69
2021/12/15 06:20:27;;;;;;;9.47;5.70;;;8.40;99.90;;;;;;4954777;28;20482;-69
2021/12/15 06:22:59;;;;;;;11.10;6.60;;;8.40;99.90;;;;;;4954451;28;20432;-68
2021/12/15 06:25:25;;;;;;;11.70;7.70;;;8.40;99.90;;;;;;4953322;28;20528;-69
2021/12/15 06:27:51;;;;;;;16.00;7.97;;;8.40;99.90;;;;;;4954518;28;20480;-69
2021/12/15 06:30:16;;;;;;;20.50;6.70;;;8.40;99.90;;;;;;4954341;28;20424;-68
2021/12/15 06:32:45;;;;;;;15.17;8.03;;;8.40;99.90;;;;;;4956265;28;20717;-69
2021/12/15 06:35:11;;;;;;;17.43;7.70;;;8.40;99.90;;;;;;4954084;28;20198;-69
2021/12/15 06:37:37;;;;;;;16.10;7.80;;;8.40;99.90;;;;;;4954198;28;20555;-68
2021/12/15 06:40:07;;;;;;;12.77;8.13;;;8.40;99.90;;;;;;4954128;28;20168;-68
2021/12/15 06:42:34;;;;;;;8.77;6.50;;;8.40;99.90;;;;;;4954163;28;20616;-70
2021/12/15 06:45:00;;;;;;;12.07;6.63;;;8.40;99.90;;;;;;4953973;28;20510;-69
2021/12/15 07:00:38;;;;;;;12.67;6.20;;;8.50;99.90;;;;;;4954048;28;20409;-69
2021/12/15 07:03:04;;;;;;;8.23;6.60;;;8.50;99.90;;;;;;4952576;28;20434;-69
2021/12/15 07:05:31;;;;;;;15.10;7.20;;;8.60;99.90;;;;;;4953302;28;20419;-69
2021/12/15 07:07:58;;;;;;;10.77;6.03;;;8.60;99.90;;;;;;4952690;28;20487;-68
2021/12/15 07:10:28;;;;;;;16.13;6.30;;;8.60;99.90;;;;;;4954415;28;20443;-69
2021/12/15 07:12:55;;;;;;;10.80;7.30;;;8.60;99.90;;;;;;4953618;28;20435;-69
2021/12/15 07:15:21;;;;;;;11.13;6.20;;;8.50;99.90;;;;;;4958845;28;20416;-69
2021/12/15 07:17:49;;;;;;;12.53;6.93;;;8.50;99.90;;;;;;4961541;28;20443;-69
2021/12/15 07:23:00;;;;;;;13.80;7.00;;;8.50;99.90;;;;;;4975066;28;20426;-69
2021/12/15 07:25:27;;;;;;;12.23;6.80;;;8.50;99.90;;;;;;4973154;28;20397;-69
2021/12/15 07:27:53;;;;;;;11.10;6.07;;;8.50;99.90;;;;;;4972525;28;20435;-69
2021/12/15 07:30:19;;;;;;;9.40;5.33;;;8.50;99.90;;;;;;4987532;28;20457;-69
2021/12/15 07:32:45;;;;;;;11.03;5.47;;;8.60;99.90;;;;;;4973393;28;20952;-69
2021/12/15 07:35:14;;;;;;;9.97;5.27;;;8.60;99.90;;;;;;4973251;28;20495;-69
2021/12/15 07:37:40;;;;;;;10.33;6.60;;;8.60;99.90;;;;;;4972849;28;20405;-69
2021/12/15 07:40:12;;;;;;;15.23;6.33;;;8.70;99.90;;;;;;4973386;28;20412;-68
2021/12/15 07:42:53;;;;;;;12.17;4.83;;;8.60;99.90;;;;;;4972817;28;20419;-69
2021/12/15 07:45:22;;;;;;;12.00;5.97;;;8.70;99.90;;;;;;4972597;28;20860;-69
2021/12/15 07:47:49;;;;;;;12.57;6.20;;;8.70;99.90;;;;;;4972533;28;20931;-69
2021/12/15 07:50:15;;;;;;;13.10;5.97;;;8.80;99.90;;;;;;4972694;28;20436;-69
2021/12/15 07:52:41;;;;;;;9.73;5.60;;;8.90;99.90;;;;;;4972667;28;20435;-69
2021/12/15 07:55:07;;;;;;;7.43;4.53;;;9.00;99.90;;;;;;4970847;28;20483;-70
2021/12/15 07:57:32;;;;;;;10.70;5.67;;;8.80;99.90;;;;;;4964421;28;20167;-68
2021/12/15 07:59:58;;;;;;;9.37;6.10;;;8.80;99.90;;;;;;4962532;28;20660;-68
2021/12/15 08:02:24;;;;;;;10.70;6.00;;;8.90;99.90;;;;;;4957110;29;20227;-71
2021/12/15 08:04:50;;;;;;;13.07;6.43;;;9.00;99.90;;;;;;4962344;28;20186;-68
2021/12/15 08:07:17;;;;;;;8.90;6.33;;;9.00;99.90;;;;;;4957235;28;20421;-70
2021/12/15 08:09:49;;;;;;;8.63;5.50;;;9.10;99.90;;;;;;4957818;28;20213;-71
2021/12/15 08:12:14;;;;;;;12.47;6.30;;;9.20;99.90;;;;;;4960609;28;20459;-68
2021/12/15 08:14:40;;;;;;;11.37;6.20;;;9.20;99.90;;;;;;4971919;28;20430;-69
2021/12/15 08:17:05;;;;;;;10.60;6.20;;;9.20;99.90;;;;;;4973156;28;20308;-69
2021/12/15 08:19:31;;;;;;;12.07;5.50;;;9.30;99.90;;;;;;4985289;28;20194;-69
2021/12/15 08:21:57;;;;;;;8.07;5.57;;;9.20;99.90;;;;;;4975047;28;20197;-69
2021/12/15 08:24:23;;;;;;;9.17;5.63;;;9.10;99.90;;;;;;4984134;28;20420;-69
2021/12/15 08:26:49;;;;;;;9.40;4.77;;;9.10;99.90;;;;;;4991025;28;20197;-70
2021/12/15 08:29:14;;;;;;;8.67;4.47;;;9.30;99.90;;;;;;4975086;28;20235;-69
2021/12/15 08:31:40;;;;;;;9.50;4.83;;;9.50;99.90;;;;;;4975435;28;20885;-69
2021/12/15 08:34:08;;;;;;;7.10;4.00;;;9.50;99.90;;;;;;4983048;28;20211;-69
2021/12/15 08:36:35;;;;;;;9.07;5.13;;;9.40;99.90;;;;;;4978479;28;20171;-69
2021/12/15 08:39:00;;;;;;;12.50;5.70;;;9.20;99.90;;;;;;4985220;28;20435;-69
2021/12/15 08:41:29;;;;;;;7.97;4.97;;;9.30;99.90;;;;;;4981160;28;20439;-69
2021/12/15 08:43:56;;;;;;;5.67;4.03;;;9.40;99.90;;;;;;4988959;28;20183;-69
2021/12/15 08:46:29;;;;;;;8.20;4.33;;;9.20;99.90;;;;;;4998316;28;20816;-71
2021/12/15 08:48:55;;;;;;;13.70;6.80;;;9.20;99.90;;;;;;4998042;28;20458;-68
2021/12/15 08:51:25;;;;;;;10.70;5.83;;;9.10;99.90;;;;;;4995239;28;20439;-70
2021/12/15 08:53:53;;;;;;;9.73;5.60;;;9.30;99.90;;;;;;4978064;28;20447;-67
2021/12/15 08:56:19;;;;;;;8.30;5.40;;;9.20;99.90;;;;;;4975449;28;20416;-69
2021/12/15 08:58:45;;;;;;;5.47;3.80;;;9.20;99.90;;;;;;4982297;28;20439;-67
2021/12/15 09:01:11;;;;;;;7.50;5.47;;;9.10;99.90;;;;;;4974141;28;20433;-68
2021/12/15 09:03:40;;;;;;;11.83;5.90;;;9.40;99.90;;;;;;4975907;28;20196;-69
2021/12/15 09:06:07;;;;;;;7.50;6.37;;;9.20;99.90;;;;;;4986240;28;20413;-69
2021/12/15 09:08:33;;;;;;;12.73;5.50;;;9.50;99.90;;;;;;4994902;28;21100;-69
2021/12/15 09:11:03;;;;;;;10.30;6.43;;;9.50;99.90;;;;;;4975912;28;20978;-69
2021/12/15 09:13:31;;;;;;;14.23;6.70;;;9.40;99.90;;;;;;4975129;28;20527;-69
2021/12/15 09:15:59;;;;;;;9.00;5.57;;;9.40;99.90;;;;;;4974930;28;20425;-69
2021/12/15 09:18:25;;;;;;;9.57;6.47;;;9.70;99.90;;;;;;4975207;28;20835;-69
2021/12/15 09:20:51;;;;;;;13.70;4.97;;;9.50;99.90;;;;;;4975724;28;20452;-71
2021/12/15 09:23:18;;;;;;;7.80;5.67;;;9.40;99.90;;;;;;4983612;28;20817;-69
2021/12/15 09:25:45;;;;;;;9.03;5.23;;;9.70;99.90;;;;;;4975212;28;20409;-70
2021/12/15 09:28:12;;;;;;;11.40;6.77;;;9.60;99.90;;;;;;4974539;28;20467;-70
2021/12/15 09:30:44;;;;;;;7.47;5.70;;;9.40;99.90;;;;;;4974876;28;20417;-68
2021/12/15 09:33:16;;;;;;;7.83;5.20;;;9.40;99.90;;;;;;4974599;28;20495;-69
2021/12/15 09:35:42;;;;;;;9.93;5.47;;;9.40;99.90;;;;;;4974717;28;20406;-68
2021/12/15 09:38:12;;;;;;;11.40;7.00;;;9.60;99.90;;;;;;4974562;28;20417;-68
2021/12/15 09:40:40;;;;;;;17.53;8.27;;;9.40;99.90;;;;;;4969813;28;20420;-68
2021/12/15 09:43:07;;;;;;;10.80;6.27;;;9.40;99.90;;;;;;4969288;28;20446;-68
2021/12/15 09:56:19;;;;;;;8.97;6.40;;;9.40;99.90;;;;;;4982127;28;20774;-69
2021/12/15 09:56:50;;;;;;;6.67;4.80;;;9.70;99.90;;;;;;4981423;28;20392;-69
2021/12/15 10:02:12;;;;;;;12.60;6.00;;;9.60;99.90;;;;;;4977072;28;20579;-69
2021/12/15 10:04:50;;;;;;;12.27;4.80;;;9.50;99.90;;;;;;4975408;28;21111;-69
2021/12/15 10:18:36;;;;;;;8.33;5.87;;;9.70;99.90;;;;;;4987560;28;20415;-69
2021/12/15 10:21:05;;;;;;;11.80;5.20;;;9.60;99.90;;;;;;4987056;28;20440;-68
2021/12/15 10:23:38;;;;;;;11.47;6.20;;;9.50;99.90;;;;;;4975544;28;20779;-68
2021/12/15 10:26:06;;;;;;;12.70;5.57;;;9.50;99.90;;;;;;4981015;28;20419;-68
2021/12/15 10:28:35;;;;;;;10.07;5.63;;;9.50;99.90;;;;;;4979723;28;20457;-68
2021/12/15 10:31:08;;;;;;;9.33;5.13;;;9.80;99.90;;;;;;4982569;28;20445;-69
2021/12/15 10:33:46;;;;;;;8.23;5.30;;;9.90;99.90;;;;;;4982582;28;20410;-68
2021/12/15 10:36:32;;;;;;;6.97;4.47;;;9.80;99.90;;;;;;4973508;28;20408;-70
2021/12/15 10:39:04;;;;;;;10.83;6.07;;;10.00;99.90;;;;;;4973593;28;20908;-68
2021/12/15 10:41:37;;;;;;;7.80;3.93;;;10.00;99.90;;;;;;4976189;28;20469;-70
2021/12/15 10:44:09;;;;;;;7.83;5.27;;;10.00;99.90;;;;;;4978714;28;20423;-69
2021/12/15 10:46:41;;;;;;;8.57;5.00;;;9.80;99.90;;;;;;4971312;28;20979;-69
2021/12/15 10:49:18;;;;;;;6.80;4.10;;;9.70;99.90;;;;;;4965488;28;20826;-69
2021/12/15 10:51:48;;;;;;;7.27;4.83;;;9.70;99.90;;;;;;4968176;28;20429;-68
2021/12/15 10:54:17;;;;;;;7.67;4.57;;;9.90;99.90;;;;;;4970404;28;20410;-68
2021/12/15 10:56:51;;;;;;;12.13;4.63;;;10.00;99.90;;;;;;4977658;28;20445;-69
2021/12/15 10:59:17;;;;;;;10.33;4.43;;;10.00;99.90;;;;;;4976060;28;20503;-70
2021/12/15 11:01:46;;;;;;;9.50;5.30;;;10.00;99.90;;;;;;4972748;28;20519;-69
2021/12/15 11:04:20;;;;;;;8.47;5.97;;;9.80;99.90;;;;;;4980439;28;20428;-70
2021/12/15 11:07:00;;;;;;;8.83;5.53;;;9.90;99.90;;;;;;4992698;28;20943;-73
2021/12/15 11:09:26;;;;;;;8.40;5.20;;;9.90;99.90;;;;;;4971373;28;20555;-69
2021/12/15 11:12:05;;;;;;;6.83;4.30;;;9.90;99.90;;;;;;4973190;28;20510;-68
2021/12/15 11:14:33;;;;;;;6.83;3.83;;;9.90;99.90;;;;;;4973059;28;20173;-73
2021/12/15 11:17:04;;;;;;;8.17;5.10;;;10.10;99.90;;;;;;4970341;28;20954;-73
2021/12/15 11:19:46;;;;;;;8.93;3.90;;;10.30;99.90;;;;;;4980553;28;20544;-69
2021/12/15 11:22:39;;;;;;;7.60;4.30;;;10.10;99.90;;;;;;4971870;28;20437;-71
2021/12/15 11:25:18;;;;;;;5.97;3.97;;;10.20;99.90;;;;;;4972788;28;20420;-69
2021/12/15 11:27:48;;;;;;;6.13;4.50;;;10.20;99.90;;;;;;4974054;28;20409;-69
2021/12/15 11:30:22;;;;;;;8.97;4.97;;;10.10;99.90;;;;;;4987842;28;20401;-69
2021/12/15 11:32:50;;;;;;;7.83;4.27;;;9.90;99.90;;;;;;4975277;28;20439;-70
2021/12/15 11:35:29;;;;;;;7.87;4.97;;;10.10;99.90;;;;;;4979459;28;20452;-70
2021/12/15 11:38:01;;;;;;;8.60;4.80;;;10.20;99.90;;;;;;4979077;28;20437;-70
2021/12/15 11:40:38;;;;;;;10.23;5.20;;;10.20;99.90;;;;;;4979426;28;20386;-69
2021/12/15 11:43:05;;;;;;;9.50;5.33;;;9.90;99.90;;;;;;4978926;28;20435;-69
2021/12/15 11:45:32;;;;;;;6.87;4.30;;;10.00;99.90;;;;;;4980708;28;20404;-69
2021/12/15 11:48:36;;;;;;;11.43;4.33;;;10.00;99.90;;;;;;4976941;28;20457;-69
2021/12/15 11:51:05;;;;;;;8.80;4.30;;;9.90;99.90;;;;;;4980802;28;20409;-70
2021/12/15 11:53:46;;;;;;;7.93;4.27;;;10.20;99.90;;;;;;4979097;28;20407;-69
2021/12/15 11:56:11;;;;;;;5.67;3.53;;;10.40;99.90;;;;;;4978836;28;20423;-69
2021/12/15 11:58:37;;;;;;;5.70;3.87;;;10.60;99.90;;;;;;4978139;28;20428;-69
2021/12/15 12:01:03;;;;;;;4.83;3.30;;;10.40;99.90;;;;;;4979329;28;20212;-70
2021/12/15 12:03:29;;;;;;;5.27;4.10;;;10.60;99.90;;;;;;4976630;28;20177;-69
2021/12/15 12:05:56;;;;;;;9.17;4.90;;;10.40;99.90;;;;;;4979254;28;21009;-72
2021/12/15 12:08:22;;;;;;;9.13;3.83;;;10.70;99.90;;;;;;4984265;28;20201;-70
2021/12/15 12:10:52;;;;;;;5.43;3.70;;;10.70;99.90;;;;;;4990722;28;20491;-69
2021/12/15 12:13:25;;;;;;;5.27;4.13;;;10.80;99.90;;;;;;4999876;28;20168;-69
2021/12/15 12:15:57;;;;;;;4.80;3.30;;;10.60;99.90;;;;;;4999855;28;20418;-70
2021/12/15 12:18:26;;;;;;;6.20;3.47;;;10.50;99.90;;;;;;5000267;28;20411;-70
2021/12/15 12:20:55;;;;;;;2.53;2.33;;;10.60;99.90;;;;;;4999276;28;20467;-70
2021/12/15 12:23:24;;;;;;;5.40;3.90;;;10.40;99.90;;;;;;4998497;28;20404;-70
2021/12/15 12:25:55;;;;;;;4.20;3.40;;;10.50;99.90;;;;;;4998654;28;20447;-70
2021/12/15 12:28:27;;;;;;;4.53;3.10;;;10.40;99.90;;;;;;4998624;28;20492;-70
2021/12/15 12:31:06;;;;;;;5.70;3.80;;;10.70;99.90;;;;;;4998879;28;20760;-70
2021/12/15 12:33:34;;;;;;;5.70;3.63;;;10.70;99.90;;;;;;4998726;28;20507;-70
2021/12/15 12:36:08;;;;;;;3.90;3.10;;;10.50;99.90;;;;;;4999025;28;20400;-70
2021/12/15 12:38:37;;;;;;;5.77;3.50;;;10.40;99.90;;;;;;4999467;28;20403;-70
2021/12/15 12:41:06;;;;;;;5.37;3.60;;;10.60;99.90;;;;;;4999581;28;20511;-70
2021/12/15 12:43:37;;;;;;;7.63;4.30;;;10.80;99.90;;;;;;4998649;28;20423;-70
2021/12/15 12:46:28;;;;;;;7.17;3.37;;;10.80;99.90;;;;;;4994614;28;20408;-69
2021/12/15 12:59:21;;;;;;;5.63;3.33;;;10.50;99.90;;;;;;4978506;28;20475;-69
2021/12/15 13:00:51;;;;;;;3.30;2.57;;;10.40;99.90;;;;;;4975379;28;20905;-69
2021/12/15 13:03:42;;;;;;;4.60;2.80;;;10.50;99.90;;;;;;4975680;28;20413;-70
2021/12/15 13:06:09;;;;;;;3.90;2.33;;;10.60;99.90;;;;;;4966250;28;20488;-71
2021/12/15 13:08:46;;;;;;;5.80;3.87;;;10.60;99.90;;;;;;4972456;28;20463;-70
2021/12/15 13:11:22;;;;;;;5.40;4.30;;;10.60;99.90;;;;;;4971974;28;20444;-68
2021/12/15 13:14:04;;;;;;;5.77;4.80;;;10.40;99.90;;;;;;4979010;28;20404;-68
2021/12/15 13:16:55;;;;;;;7.37;3.23;;;10.30;99.90;;;;;;4980425;28;20409;-70
2021/12/15 13:19:39;;;;;;;5.93;2.70;;;10.40;99.90;;;;;;4982070;28;20421;-70
2021/12/15 13:30:50;;;;;;;6.20;3.63;;;10.60;99.90;;;;;;4974168;28;20415;-69
2021/12/15 13:33:42;;;;;;;7.73;4.57;;;10.80;99.90;;;;;;4979699;28;20919;-69
2021/12/15 13:36:19;;;;;;;8.37;4.40;;;10.80;99.90;;;;;;4957269;28;20461;-71
2021/12/15 13:39:07;;;;;;;6.33;3.83;;;10.70;99.90;;;;;;4955644;28;20449;-70
2021/12/15 13:41:48;;;;;;;4.40;3.37;;;10.80;99.90;;;;;;4955573;28;20449;-71
2021/12/15 13:44:48;;;;;;;6.80;3.77;;;10.50;99.90;;;;;;4955617;28;20889;-71
2021/12/15 13:47:21;;;;;;;3.87;3.10;;;10.60;99.90;;;;;;4960078;28;20440;-70
2021/12/15 13:49:57;;;;;;;5.53;4.00;;;10.50;99.90;;;;;;4970017;28;20547;-70
2021/12/15 13:52:44;;;;;;;6.90;3.63;;;10.50;99.90;;;;;;4977883;28;20878;-71
2021/12/15 13:55:25;;;;;;;9.20;4.40;;;10.70;99.90;;;;;;4977047;28;20468;-70
2021/12/15 13:58:08;;;;;;;5.37;3.53;;;10.80;99.90;;;;;;4966430;28;20433;-69
2021/12/15 14:00:45;;;;;;;6.30;4.00;;;10.90;99.90;;;;;;4976641;28;20827;-69
2021/12/15 14:03:29;;;;;;;6.43;4.33;;;10.70;99.90;;;;;;4976029;28;20413;-70
2021/12/15 14:06:15;;;;;;;6.33;3.47;;;10.60;99.90;;;;;;4971157;28;20500;-69
2021/12/15 14:08:48;;;;;;;7.00;3.40;;;10.70;99.90;;;;;;4983386;28;20460;-68
2021/12/15 14:11:21;;;;;;;5.20;3.73;;;10.50;99.90;;;;;;4975119;28;20423;-70
2021/12/15 14:13:58;;;;;;;5.63;3.00;;;10.60;99.90;;;;;;4972990;28;20437;-70
2021/12/15 14:16:38;;;;;;;5.40;3.93;;;10.60;99.90;;;;;;4973957;28;20404;-70
2021/12/15 14:19:08;;;;;;;6.13;3.53;;;10.70;99.90;;;;;;4983028;23;20412;-69
2021/12/15 14:21:36;;;;;;;5.03;4.53;;;10.70;99.90;;;;;;5003419;28;20526;-70
2021/12/15 14:24:02;;;;;;;5.33;3.50;;;10.40;99.90;;;;;;5013078;28;20498;-69
2021/12/15 14:26:32;;;;;;;5.27;4.00;;;10.40;99.90;;;;;;5012761;28;20445;-70
2021/12/15 14:29:01;;;;;;;7.23;4.00;;;10.60;99.90;;;;;;5013029;28;20207;-70
2021/12/15 14:31:33;;;;;;;6.43;3.60;;;10.50;99.90;;;;;;4992251;28;20400;-71
2021/12/15 14:34:07;;;;;;;10.47;3.93;;;10.70;99.90;;;;;;4993399;28;20412;-69
2021/12/15 14:36:36;;;;;;;7.37;3.97;;;10.90;99.90;;;;;;4990072;28;20786;-69